Terminal Aerodrome Forecast
Issued by NWS Charleston, WV

Home | Current Version | Previous Version | Text Only | Print | Product List | Glossary On
Versions: 1 2 3 4 5 6 7 8 9 10 11 12 13 14 15 16 17 18 19 20 21 22 23 24 25
000
FTUS41 KRLX 290500
TAFCRW
TAF
KCRW 290522Z 2906/3006 00000KT P6SM SCT200
     FM291400 18004KT P6SM SCT200
     FM291700 20008KT P6SM SCT200
     FM291900 19012G18KT P6SM SCT080
     FM292200 19008KT P6SM SCT060
     FM300400 19005KT P6SM BKN050=

USA.gov is the U.S. government's official web portal to all federal, state and local government web resources and services.